KSNC

Chester Airport

Chester, Connecticut, USA
METAR KSNC 182135Z AUTO 33004KT 1/2SM +RA BKN001 OVC005 22/22 A2981 RMK AO2
Observed Flight Rules
Aug-18 @ 21:35 UTC (20 minutes ago) Instrument Flight Rules
Wind Visibility Clouds Conditions
330° at 4 knots 1/2 miles
  • Broken at 100' AGL
  • Overcast at 500' AGL
  • Heavy Rain
Temperatures Readings
Current 22°C / 72°F
Dewpoint 22°C / 72°F
Humidity 100%
Altimeter 29.81" Hg
Pressure 1009 hPa
Elevation 127
METAR KSNC 182135Z AUTO 33004KT 1/2SM +RA BKN001 OVC005 22/22 A2981 RMK AO2
Observed Flight Rules
Aug-18 @ 21:35 UTC
(20 minutes ago)
LIFR
Wind Visibility
330° at 4 knots 1/2 miles
Clouds
  • Broken at 100' AGL
  • Overcast at 500' AGL
Conditions
  • Heavy Rain
Temperature Dewpoint
22°C / 72°F 22°C / 72°F
Humidity Altimeter Pressure
100% 29.81" Hg 1009 hPa